createdAt,value
2018-09-14T00:03:01.589Z,93828.97
2018-09-14T00:18:05.719Z,93821.22
2018-09-14T00:33:40.650Z,93819.93
2018-09-14T00:49:15.444Z,93819.64
2018-09-14T01:04:49.380Z,93800.44
2018-09-14T01:20:24.184Z,93804.25
2018-09-14T01:36:04.019Z,93798.27
2018-09-14T01:51:38.428Z,93806.05
2018-09-14T02:07:12.304Z,93800.14
2018-09-14T02:22:47.030Z,93795.03
2018-09-14T02:38:21.246Z,93777.34
2018-09-14T02:53:55.445Z,93776.62
2018-09-14T03:09:31.880Z,93779.52
2018-09-14T03:25:14.596Z,93813.48
2018-09-14T03:40:49.210Z,93813.05
2018-09-14T03:56:23.926Z,93801.78
2018-09-14T04:11:58.520Z,93809.66
2018-09-14T04:27:32.828Z,93824.48
2018-09-14T04:43:07.547Z,93823.91
2018-09-14T04:58:42.451Z,93815.47
2018-09-14T05:14:15.943Z,93801.50
2018-09-14T05:29:50.687Z,93803.02
2018-09-14T05:45:24.634Z,93794.53
2018-09-14T06:00:58.996Z,93814.65
2018-09-14T06:16:33.591Z,93821.41
2018-09-14T06:32:08.138Z,93821.98
2018-09-14T06:47:43.105Z,93822.73
2018-09-14T07:03:17.571Z,93825.11
2018-09-14T07:18:52.022Z,93830.03
2018-09-14T07:34:26.044Z,93834.67
2018-09-14T07:50:00.225Z,93824.14
2018-09-14T08:05:34.933Z,93822.97
2018-09-14T08:21:09.682Z,93833.27
2018-09-14T08:36:44.713Z,93837.45
2018-09-14T08:52:19.261Z,93825.53
2018-09-14T09:07:54.000Z,93826.28
2018-09-14T09:23:28.446Z,93816.58
2018-09-14T09:39:03.008Z,93828.75
2018-09-14T09:54:38.858Z,93824.07
2018-09-14T10:10:13.486Z,93814.70
2018-09-14T10:25:48.289Z,93796.40
2018-09-14T10:41:22.491Z,93785.95
2018-09-14T10:56:57.067Z,93786.45
2018-09-14T11:12:30.135Z,93774.37
2018-09-14T11:28:04.594Z,93759.97
2018-09-14T11:43:39.409Z,93754.16
2018-09-14T11:59:13.540Z,93741.44
2018-09-14T12:14:48.386Z,93743.63
2018-09-14T12:30:23.337Z,93733.61
2018-09-14T12:45:58.072Z,93722.44
2018-09-14T13:01:32.542Z,93727.24
2018-09-14T13:17:09.228Z,93718.30
2018-09-14T13:32:44.346Z,93716.45
2018-09-14T13:48:18.680Z,93719.68
2018-09-14T14:03:52.889Z,93729.83
2018-09-14T14:19:27.504Z,93727.38
2018-09-14T14:35:01.955Z,93726.88
2018-09-14T14:50:36.554Z,93735.89
2018-09-14T15:06:12.061Z,93740.54
2018-09-14T15:21:45.501Z,93757.80
2018-09-14T15:37:19.922Z,93758.41
2018-09-14T15:52:55.670Z,93772.41
2018-09-14T16:08:30.256Z,93774.64
2018-09-14T16:24:04.834Z,93777.20
2018-09-14T16:39:39.310Z,93810.11
2018-09-14T16:55:13.672Z,93816.30
2018-09-14T17:10:48.748Z,93823.87
2018-09-14T17:26:24.225Z,93841.84
2018-09-14T17:41:58.914Z,93854.65
2018-09-14T17:57:33.453Z,93870.94
2018-09-14T18:13:08.320Z,93885.39
2018-09-14T18:28:43.096Z,93888.14
2018-09-14T18:44:17.555Z,93888.89
2018-09-14T18:59:52.401Z,93897.91
2018-09-14T19:15:26.896Z,93898.89
2018-09-14T19:31:02.120Z,93909.23
2018-09-14T19:46:36.511Z,93921.47
2018-09-14T20:02:11.926Z,93925.70
2018-09-14T20:17:47.358Z,93936.67
2018-09-14T20:33:22.239Z,93944.41
2018-09-14T20:48:57.035Z,93941.48
2018-09-14T21:04:31.795Z,93938.72
2018-09-14T21:20:06.400Z,93935.07
2018-09-14T21:35:41.046Z,93927.90
2018-09-14T21:51:15.799Z,93932.94
2018-09-14T22:06:49.920Z,93954.95
2018-09-14T22:22:24.367Z,93958.61
2018-09-14T22:37:59.294Z,93957.58
2018-09-14T22:53:34.441Z,93957.37
2018-09-14T23:09:08.919Z,93957.46
2018-09-14T23:24:43.476Z,93957.13
2018-09-14T23:40:17.921Z,93957.22
2018-09-14T23:55:52.381Z,93961.15
